sensor_id;sensor_type;location;lat;lon;timestamp;temperature;humidity
29687;DHT22;16599;47.078;15.536;2022-10-30T00:00:39;8.90;99.90
29687;DHT22;16599;47.078;15.536;2022-10-30T00:03:10;8.90;99.90
29687;DHT22;16599;47.078;15.536;2022-10-30T00:05:42;8.90;99.90
29687;DHT22;16599;47.078;15.536;2022-10-30T00:08:11;9.00;99.90
29687;DHT22;16599;47.078;15.536;2022-10-30T00:10:39;9.20;99.90
29687;DHT22;16599;47.078;15.536;2022-10-30T00:13:07;9.30;99.90
29687;DHT22;16599;47.078;15.536;2022-10-30T00:15:34;9.30;99.90
29687;DHT22;16599;47.078;15.536;2022-10-30T00:18:01;9.20;99.90
29687;DHT22;16599;47.078;15.536;2022-10-30T00:20:28;9.10;99.90
29687;DHT22;16599;47.078;15.536;2022-10-30T00:22:55;9.10;99.90
29687;DHT22;16599;47.078;15.536;2022-10-30T00:25:23;9.10;99.90
29687;DHT22;16599;47.078;15.536;2022-10-30T00:27:50;9.20;99.90
29687;DHT22;16599;47.078;15.536;2022-10-30T00:30:16;9.20;99.90
29687;DHT22;16599;47.078;15.536;2022-10-30T00:32:44;9.10;99.90
29687;DHT22;16599;47.078;15.536;2022-10-30T00:35:11;9.00;99.90
29687;DHT22;16599;47.078;15.536;2022-10-30T00:37:38;9.10;99.90
29687;DHT22;16599;47.078;15.536;2022-10-30T00:40:05;9.10;99.90
29687;DHT22;16599;47.078;15.536;2022-10-30T00:42:33;9.10;99.90
29687;DHT22;16599;47.078;15.536;2022-10-30T00:45:00;9.20;99.90
29687;DHT22;16599;47.078;15.536;2022-10-30T00:47:36;9.20;99.90
29687;DHT22;16599;47.078;15.536;2022-10-30T00:50:13;9.00;99.90
29687;DHT22;16599;47.078;15.536;2022-10-30T00:52:52;9.20;99.90
29687;DHT22;16599;47.078;15.536;2022-10-30T00:55:43;9.10;99.90
29687;DHT22;16599;47.078;15.536;2022-10-30T00:58:15;9.10;99.90
29687;DHT22;16599;47.078;15.536;2022-10-30T01:00:46;9.10;99.90
29687;DHT22;16599;47.078;15.536;2022-10-30T01:03:14;9.20;99.90
29687;DHT22;16599;47.078;15.536;2022-10-30T01:05:43;9.10;99.90
29687;DHT22;16599;47.078;15.536;2022-10-30T01:08:14;8.90;99.90
29687;DHT22;16599;47.078;15.536;2022-10-30T01:10:41;9.00;99.90
29687;DHT22;16599;47.078;15.536;2022-10-30T01:13:09;9.20;99.90
29687;DHT22;16599;47.078;15.536;2022-10-30T01:15:41;9.20;99.90
29687;DHT22;16599;47.078;15.536;2022-10-30T01:34:41;9.10;99.90
29687;DHT22;16599;47.078;15.536;2022-10-30T01:40:18;9.30;99.90
29687;DHT22;16599;47.078;15.536;2022-10-30T01:42:55;9.20;99.90
29687;DHT22;16599;47.078;15.536;2022-10-30T01:48:31;9.10;99.90
29687;DHT22;16599;47.078;15.536;2022-10-30T01:53:55;9.00;99.90
29687;DHT22;16599;47.078;15.536;2022-10-30T01:59:32;8.80;99.90
29687;DHT22;16599;47.078;15.536;2022-10-30T02:02:00;8.90;99.90
29687;DHT22;16599;47.078;15.536;2022-10-30T02:04:28;8.90;99.90
29687;DHT22;16599;47.078;15.536;2022-10-30T02:06:55;8.80;99.90
29687;DHT22;16599;47.078;15.536;2022-10-30T02:09:22;8.80;99.90
29687;DHT22;16599;47.078;15.536;2022-10-30T02:11:51;8.80;99.90
29687;DHT22;16599;47.078;15.536;2022-10-30T02:14:29;8.70;99.90
29687;DHT22;16599;47.078;15.536;2022-10-30T02:16:59;8.70;99.90
29687;DHT22;16599;47.078;15.536;2022-10-30T02:19:26;8.50;99.90
29687;DHT22;16599;47.078;15.536;2022-10-30T02:21:53;8.60;99.90
29687;DHT22;16599;47.078;15.536;2022-10-30T02:24:20;8.60;99.90
29687;DHT22;16599;47.078;15.536;2022-10-30T02:26:47;8.70;99.90
29687;DHT22;16599;47.078;15.536;2022-10-30T02:29:13;8.80;99.90
29687;DHT22;16599;47.078;15.536;2022-10-30T02:31:40;8.40;99.90
29687;DHT22;16599;47.078;15.536;2022-10-30T02:34:07;8.60;99.90
29687;DHT22;16599;47.078;15.536;2022-10-30T02:36:34;8.60;99.90
29687;DHT22;16599;47.078;15.536;2022-10-30T02:39:01;8.40;99.90
29687;DHT22;16599;47.078;15.536;2022-10-30T02:41:28;8.40;99.90
29687;DHT22;16599;47.078;15.536;2022-10-30T02:43:55;8.50;99.90
29687;DHT22;16599;47.078;15.536;2022-10-30T02:46:22;8.50;99.90
29687;DHT22;16599;47.078;15.536;2022-10-30T02:48:49;8.50;99.90
29687;DHT22;16599;47.078;15.536;2022-10-30T02:51:16;8.50;99.90
29687;DHT22;16599;47.078;15.536;2022-10-30T02:53:43;8.50;99.90
29687;DHT22;16599;47.078;15.536;2022-10-30T02:56:12;8.40;99.90
29687;DHT22;16599;47.078;15.536;2022-10-30T02:58:39;8.40;99.90
29687;DHT22;16599;47.078;15.536;2022-10-30T03:01:12;8.30;99.90
29687;DHT22;16599;47.078;15.536;2022-10-30T03:03:40;8.30;99.90
29687;DHT22;16599;47.078;15.536;2022-10-30T03:06:09;8.30;99.90
29687;DHT22;16599;47.078;15.536;2022-10-30T03:08:36;8.40;99.90
29687;DHT22;16599;47.078;15.536;2022-10-30T03:11:08;8.40;99.90
29687;DHT22;16599;47.078;15.536;2022-10-30T03:13:36;8.40;99.90
29687;DHT22;16599;47.078;15.536;2022-10-30T03:16:09;8.50;99.90
29687;DHT22;16599;47.078;15.536;2022-10-30T03:18:36;8.30;99.90
29687;DHT22;16599;47.078;15.536;2022-10-30T03:21:05;8.30;99.90
29687;DHT22;16599;47.078;15.536;2022-10-30T03:23:32;8.40;99.90
29687;DHT22;16599;47.078;15.536;2022-10-30T03:25:59;8.30;99.90
29687;DHT22;16599;47.078;15.536;2022-10-30T03:28:29;8.30;99.90
29687;DHT22;16599;47.078;15.536;2022-10-30T03:31:04;8.20;99.90
29687;DHT22;16599;47.078;15.536;2022-10-30T03:33:32;8.20;99.90
29687;DHT22;16599;47.078;15.536;2022-10-30T03:35:59;8.20;99.90
29687;DHT22;16599;47.078;15.536;2022-10-30T03:38:26;8.20;99.90
29687;DHT22;16599;47.078;15.536;2022-10-30T03:40:53;8.20;99.90
29687;DHT22;16599;47.078;15.536;2022-10-30T03:43:20;8.30;99.90
29687;DHT22;16599;47.078;15.536;2022-10-30T03:45:49;8.20;99.90
29687;DHT22;16599;47.078;15.536;2022-10-30T03:48:17;8.10;99.90
29687;DHT22;16599;47.078;15.536;2022-10-30T03:50:44;8.20;99.90
29687;DHT22;16599;47.078;15.536;2022-10-30T03:53:12;8.20;99.90
29687;DHT22;16599;47.078;15.536;2022-10-30T03:55:40;8.00;99.90
29687;DHT22;16599;47.078;15.536;2022-10-30T03:58:06;8.00;99.90
29687;DHT22;16599;47.078;15.536;2022-10-30T04:00:34;8.10;99.90
29687;DHT22;16599;47.078;15.536;2022-10-30T04:03:04;7.90;99.90
29687;DHT22;16599;47.078;15.536;2022-10-30T04:05:32;7.90;99.90
29687;DHT22;16599;47.078;15.536;2022-10-30T04:08:02;8.10;99.90
29687;DHT22;16599;47.078;15.536;2022-10-30T04:10:29;8.20;99.90
29687;DHT22;16599;47.078;15.536;2022-10-30T04:13:04;8.00;99.90
29687;DHT22;16599;47.078;15.536;2022-10-30T04:15:32;7.90;99.90
29687;DHT22;16599;47.078;15.536;2022-10-30T04:17:59;8.00;99.90
29687;DHT22;16599;47.078;15.536;2022-10-30T04:20:27;8.00;99.90
29687;DHT22;16599;47.078;15.536;2022-10-30T04:22:56;8.00;99.90
29687;DHT22;16599;47.078;15.536;2022-10-30T04:25:23;8.00;99.90
29687;DHT22;16599;47.078;15.536;2022-10-30T04:27:50;8.10;99.90
29687;DHT22;16599;47.078;15.536;2022-10-30T04:30:19;8.00;99.90
29687;DHT22;16599;47.078;15.536;2022-10-30T04:32:55;7.90;99.90
29687;DHT22;16599;47.078;15.536;2022-10-30T04:35:24;7.90;99.90
29687;DHT22;16599;47.078;15.536;2022-10-30T04:38:06;7.90;99.90
29687;DHT22;16599;47.078;15.536;2022-10-30T04:40:35;7.90;99.90
29687;DHT22;16599;47.078;15.536;2022-10-30T04:43:02;7.90;99.90
29687;DHT22;16599;47.078;15.536;2022-10-30T04:45:29;8.00;99.90
29687;DHT22;16599;47.078;15.536;2022-10-30T04:48:09;8.00;99.90
29687;DHT22;16599;47.078;15.536;2022-10-30T04:50:36;7.80;99.90
29687;DHT22;16599;47.078;15.536;2022-10-30T04:53:12;7.90;99.90
29687;DHT22;16599;47.078;15.536;2022-10-30T04:55:40;7.90;99.90
29687;DHT22;16599;47.078;15.536;2022-10-30T04:58:08;7.80;99.90
29687;DHT22;16599;47.078;15.536;2022-10-30T05:00:35;7.80;99.90
29687;DHT22;16599;47.078;15.536;2022-10-30T05:03:02;7.90;99.90
29687;DHT22;16599;47.078;15.536;2022-10-30T05:05:30;7.90;99.90
29687;DHT22;16599;47.078;15.536;2022-10-30T05:07:57;7.90;99.90
29687;DHT22;16599;47.078;15.536;2022-10-30T05:10:24;7.80;99.90
29687;DHT22;16599;47.078;15.536;2022-10-30T05:12:52;7.80;99.90
29687;DHT22;16599;47.078;15.536;2022-10-30T05:15:20;7.80;99.90
29687;DHT22;16599;47.078;15.536;2022-10-30T05:17:51;7.80;99.90
29687;DHT22;16599;47.078;15.536;2022-10-30T05:20:18;7.70;99.90
29687;DHT22;16599;47.078;15.536;2022-10-30T05:22:49;7.70;99.90
29687;DHT22;16599;47.078;15.536;2022-10-30T05:25:19;7.70;99.90
29687;DHT22;16599;47.078;15.536;2022-10-30T05:27:45;7.70;99.90
29687;DHT22;16599;47.078;15.536;2022-10-30T05:30:12;7.70;99.90
29687;DHT22;16599;47.078;15.536;2022-10-30T05:32:39;7.70;99.90
29687;DHT22;16599;47.078;15.536;2022-10-30T05:35:06;7.70;99.90
29687;DHT22;16599;47.078;15.536;2022-10-30T05:37:33;7.70;99.90
29687;DHT22;16599;47.078;15.536;2022-10-30T05:40:00;7.70;99.90
29687;DHT22;16599;47.078;15.536;2022-10-30T05:42:27;7.60;99.90
29687;DHT22;16599;47.078;15.536;2022-10-30T05:44:54;7.70;99.90
29687;DHT22;16599;47.078;15.536;2022-10-30T05:47:26;7.50;99.90
29687;DHT22;16599;47.078;15.536;2022-10-30T05:49:53;7.60;99.90
29687;DHT22;16599;47.078;15.536;2022-10-30T05:52:20;7.60;99.90
29687;DHT22;16599;47.078;15.536;2022-10-30T05:54:47;7.60;99.90
29687;DHT22;16599;47.078;15.536;2022-10-30T05:57:14;7.70;99.90
29687;DHT22;16599;47.078;15.536;2022-10-30T05:59:40;7.80;99.90
29687;DHT22;16599;47.078;15.536;2022-10-30T06:02:07;7.80;99.90
29687;DHT22;16599;47.078;15.536;2022-10-30T06:04:34;7.60;99.90
29687;DHT22;16599;47.078;15.536;2022-10-30T06:07:01;7.60;99.90
29687;DHT22;16599;47.078;15.536;2022-10-30T06:09:28;7.70;99.90
29687;DHT22;16599;47.078;15.536;2022-10-30T06:11:55;7.70;99.90
29687;DHT22;16599;47.078;15.536;2022-10-30T06:14:21;7.90;99.90
29687;DHT22;16599;47.078;15.536;2022-10-30T06:16:49;8.00;99.90
29687;DHT22;16599;47.078;15.536;2022-10-30T06:19:16;8.10;99.90
29687;DHT22;16599;47.078;15.536;2022-10-30T06:21:45;8.00;99.90
29687;DHT22;16599;47.078;15.536;2022-10-30T06:24:12;8.00;99.90
29687;DHT22;16599;47.078;15.536;2022-10-30T06:26:39;8.10;99.90
29687;DHT22;16599;47.078;15.536;2022-10-30T06:29:06;8.10;99.90
29687;DHT22;16599;47.078;15.536;2022-10-30T06:31:33;8.00;99.90
29687;DHT22;16599;47.078;15.536;2022-10-30T06:34:00;8.00;99.90
29687;DHT22;16599;47.078;15.536;2022-10-30T06:36:27;8.00;99.90
29687;DHT22;16599;47.078;15.536;2022-10-30T06:38:54;8.10;99.90
29687;DHT22;16599;47.078;15.536;2022-10-30T06:41:20;8.20;99.90
29687;DHT22;16599;47.078;15.536;2022-10-30T06:43:55;8.20;99.90
29687;DHT22;16599;47.078;15.536;2022-10-30T06:46:22;8.30;99.90
29687;DHT22;16599;47.078;15.536;2022-10-30T06:48:56;8.40;99.90
29687;DHT22;16599;47.078;15.536;2022-10-30T06:51:23;8.50;99.90
29687;DHT22;16599;47.078;15.536;2022-10-30T06:53:50;8.50;99.90
29687;DHT22;16599;47.078;15.536;2022-10-30T06:56:16;8.60;99.90
29687;DHT22;16599;47.078;15.536;2022-10-30T06:58:43;8.60;99.90
29687;DHT22;16599;47.078;15.536;2022-10-30T07:01:10;8.60;99.90
29687;DHT22;16599;47.078;15.536;2022-10-30T07:03:37;8.80;99.90
29687;DHT22;16599;47.078;15.536;2022-10-30T07:06:04;8.80;99.90
29687;DHT22;16599;47.078;15.536;2022-10-30T07:08:31;8.90;99.90
29687;DHT22;16599;47.078;15.536;2022-10-30T07:10:58;8.90;99.90
29687;DHT22;16599;47.078;15.536;2022-10-30T07:13:25;9.10;99.90
29687;DHT22;16599;47.078;15.536;2022-10-30T07:15:51;9.20;99.90
29687;DHT22;16599;47.078;15.536;2022-10-30T07:18:18;9.30;99.90
29687;DHT22;16599;47.078;15.536;2022-10-30T07:20:45;9.70;99.90
29687;DHT22;16599;47.078;15.536;2022-10-30T07:23:12;9.70;99.90
29687;DHT22;16599;47.078;15.536;2022-10-30T07:25:39;9.60;99.90
29687;DHT22;16599;47.078;15.536;2022-10-30T07:28:06;9.60;99.90
29687;DHT22;16599;47.078;15.536;2022-10-30T07:30:32;9.70;99.90
29687;DHT22;16599;47.078;15.536;2022-10-30T07:33:02;9.80;99.90
29687;DHT22;16599;47.078;15.536;2022-10-30T07:35:29;10.20;99.90
29687;DHT22;16599;47.078;15.536;2022-10-30T07:38:09;10.30;99.90
29687;DHT22;16599;47.078;15.536;2022-10-30T07:40:37;10.30;99.90
29687;DHT22;16599;47.078;15.536;2022-10-30T07:43:04;10.50;99.90
29687;DHT22;16599;47.078;15.536;2022-10-30T07:45:32;10.60;99.90
29687;DHT22;16599;47.078;15.536;2022-10-30T07:47:59;10.70;99.90
29687;DHT22;16599;47.078;15.536;2022-10-30T07:50:26;10.80;99.90
29687;DHT22;16599;47.078;15.536;2022-10-30T07:52:53;10.80;99.90
29687;DHT22;16599;47.078;15.536;2022-10-30T07:55:20;11.00;99.90
29687;DHT22;16599;47.078;15.536;2022-10-30T07:57:47;11.00;99.90
29687;DHT22;16599;47.078;15.536;2022-10-30T08:00:16;11.10;99.90
29687;DHT22;16599;47.078;15.536;2022-10-30T08:02:48;11.40;99.90
29687;DHT22;16599;47.078;15.536;2022-10-30T08:05:15;11.70;99.90
29687;DHT22;16599;47.078;15.536;2022-10-30T08:07:45;11.70;99.90
29687;DHT22;16599;47.078;15.536;2022-10-30T08:10:12;11.60;99.90
29687;DHT22;16599;47.078;15.536;2022-10-30T08:12:39;11.80;99.90
29687;DHT22;16599;47.078;15.536;2022-10-30T08:15:09;11.80;99.90
29687;DHT22;16599;47.078;15.536;2022-10-30T08:17:41;11.90;99.90
29687;DHT22;16599;47.078;15.536;2022-10-30T08:20:10;12.10;99.90
29687;DHT22;16599;47.078;15.536;2022-10-30T08:22:48;12.20;99.90
29687;DHT22;16599;47.078;15.536;2022-10-30T08:25:17;12.30;99.90
29687;DHT22;16599;47.078;15.536;2022-10-30T08:27:57;12.40;99.90
29687;DHT22;16599;47.078;15.536;2022-10-30T08:30:27;12.60;99.90
29687;DHT22;16599;47.078;15.536;2022-10-30T08:32:58;12.80;99.90
29687;DHT22;16599;47.078;15.536;2022-10-30T08:35:26;12.80;99.90
29687;DHT22;16599;47.078;15.536;2022-10-30T08:37:54;12.90;99.90
29687;DHT22;16599;47.078;15.536;2022-10-30T08:40:25;13.00;99.90
29687;DHT22;16599;47.078;15.536;2022-10-30T08:42:54;13.10;99.90
29687;DHT22;16599;47.078;15.536;2022-10-30T08:45:21;13.20;99.90
29687;DHT22;16599;47.078;15.536;2022-10-30T08:47:58;13.60;99.90
29687;DHT22;16599;47.078;15.536;2022-10-30T08:50:26;13.70;99.90
29687;DHT22;16599;47.078;15.536;2022-10-30T08:52:53;13.60;99.90
29687;DHT22;16599;47.078;15.536;2022-10-30T08:55:20;14.10;99.90
29687;DHT22;16599;47.078;15.536;2022-10-30T08:57:47;14.50;99.90
29687;DHT22;16599;47.078;15.536;2022-10-30T09:00:15;14.40;99.90
29687;DHT22;16599;47.078;15.536;2022-10-30T09:02:41;14.60;99.90
29687;DHT22;16599;47.078;15.536;2022-10-30T09:05:09;14.90;99.90
29687;DHT22;16599;47.078;15.536;2022-10-30T09:07:35;15.00;99.90
29687;DHT22;16599;47.078;15.536;2022-10-30T09:10:03;15.10;99.90
29687;DHT22;16599;47.078;15.536;2022-10-30T09:12:30;15.10;99.90
29687;DHT22;16599;47.078;15.536;2022-10-30T09:14:56;15.10;99.90
29687;DHT22;16599;47.078;15.536;2022-10-30T09:17:23;15.50;99.90
29687;DHT22;16599;47.078;15.536;2022-10-30T09:19:50;15.80;99.90
29687;DHT22;16599;47.078;15.536;2022-10-30T09:22:17;16.00;99.90
29687;DHT22;16599;47.078;15.536;2022-10-30T09:24:45;16.10;99.90
29687;DHT22;16599;47.078;15.536;2022-10-30T09:27:13;16.20;99.90
29687;DHT22;16599;47.078;15.536;2022-10-30T09:29:40;16.20;99.90
29687;DHT22;16599;47.078;15.536;2022-10-30T09:32:08;16.50;99.90
29687;DHT22;16599;47.078;15.536;2022-10-30T09:34:36;16.60;99.90
29687;DHT22;16599;47.078;15.536;2022-10-30T09:37:04;16.70;99.90
29687;DHT22;16599;47.078;15.536;2022-10-30T09:39:31;16.80;99.90
29687;DHT22;16599;47.078;15.536;2022-10-30T09:53:14;17.20;99.90
29687;DHT22;16599;47.078;15.536;2022-10-30T09:56:11;17.50;99.90
29687;DHT22;16599;47.078;15.536;2022-10-30T09:59:09;17.60;99.90
29687;DHT22;16599;47.078;15.536;2022-10-30T10:04:45;17.80;99.90
29687;DHT22;16599;47.078;15.536;2022-10-30T10:07:17;18.00;99.90
29687;DHT22;16599;47.078;15.536;2022-10-30T10:09:46;18.30;99.90
29687;DHT22;16599;47.078;15.536;2022-10-30T10:12:36;18.30;99.90
29687;DHT22;16599;47.078;15.536;2022-10-30T10:17:47;19.00;99.90
29687;DHT22;16599;47.078;15.536;2022-10-30T10:20:36;18.80;99.90
29687;DHT22;16599;47.078;15.536;2022-10-30T10:23:29;18.70;99.90
29687;DHT22;16599;47.078;15.536;2022-10-30T10:26:04;18.80;99.90
29687;DHT22;16599;47.078;15.536;2022-10-30T10:37:37;19.20;99.90
29687;DHT22;16599;47.078;15.536;2022-10-30T10:43:15;19.80;99.90
29687;DHT22;16599;47.078;15.536;2022-10-30T10:49:10;19.60;99.90
29687;DHT22;16599;47.078;15.536;2022-10-30T10:51:44;19.70;99.90
29687;DHT22;16599;47.078;15.536;2022-10-30T10:54:17;19.70;99.90
29687;DHT22;16599;47.078;15.536;2022-10-30T10:56:47;19.70;99.90
29687;DHT22;16599;47.078;15.536;2022-10-30T11:01:57;19.90;99.90
29687;DHT22;16599;47.078;15.536;2022-10-30T11:04:42;20.00;99.90
29687;DHT22;16599;47.078;15.536;2022-10-30T11:07:23;20.10;99.90
29687;DHT22;16599;47.078;15.536;2022-10-30T11:09:52;20.00;99.90
29687;DHT22;16599;47.078;15.536;2022-10-30T11:12:29;20.10;99.90
29687;DHT22;16599;47.078;15.536;2022-10-30T11:15:32;20.10;99.90
29687;DHT22;16599;47.078;15.536;2022-10-30T11:18:05;20.00;99.90
29687;DHT22;16599;47.078;15.536;2022-10-30T11:20:55;19.90;99.90
29687;DHT22;16599;47.078;15.536;2022-10-30T11:23:32;20.10;99.90
29687;DHT22;16599;47.078;15.536;2022-10-30T11:26:00;20.00;99.90
29687;DHT22;16599;47.078;15.536;2022-10-30T11:33:50;20.40;99.90
29687;DHT22;16599;47.078;15.536;2022-10-30T11:36:21;20.60;99.90
29687;DHT22;16599;47.078;15.536;2022-10-30T11:38:49;20.70;99.90
29687;DHT22;16599;47.078;15.536;2022-10-30T11:41:17;20.60;99.90
29687;DHT22;16599;47.078;15.536;2022-10-30T11:43:45;20.60;99.90
29687;DHT22;16599;47.078;15.536;2022-10-30T11:46:20;20.80;99.90
29687;DHT22;16599;47.078;15.536;2022-10-30T11:48:48;21.00;99.90
29687;DHT22;16599;47.078;15.536;2022-10-30T11:51:36;21.20;99.90
29687;DHT22;16599;47.078;15.536;2022-10-30T11:54:05;21.20;99.90
29687;DHT22;16599;47.078;15.536;2022-10-30T11:56:33;21.20;99.90
29687;DHT22;16599;47.078;15.536;2022-10-30T11:59:02;21.20;98.50
29687;DHT22;16599;47.078;15.536;2022-10-30T12:01:36;21.20;97.90
29687;DHT22;16599;47.078;15.536;2022-10-30T12:04:22;21.30;98.70
29687;DHT22;16599;47.078;15.536;2022-10-30T12:07:19;21.20;98.20
29687;DHT22;16599;47.078;15.536;2022-10-30T12:09:50;21.10;97.20
29687;DHT22;16599;47.078;15.536;2022-10-30T12:12:20;21.30;96.20
29687;DHT22;16599;47.078;15.536;2022-10-30T12:14:48;21.50;96.50
29687;DHT22;16599;47.078;15.536;2022-10-30T12:17:17;21.50;96.60
29687;DHT22;16599;47.078;15.536;2022-10-30T12:19:52;21.60;95.00
29687;DHT22;16599;47.078;15.536;2022-10-30T12:22:29;21.60;95.40
29687;DHT22;16599;47.078;15.536;2022-10-30T12:25:03;21.70;95.20
29687;DHT22;16599;47.078;15.536;2022-10-30T12:27:34;21.70;93.60
29687;DHT22;16599;47.078;15.536;2022-10-30T12:30:13;21.60;93.10
29687;DHT22;16599;47.078;15.536;2022-10-30T12:35:57;21.80;94.20
29687;DHT22;16599;47.078;15.536;2022-10-30T12:52:04;21.70;93.40
29687;DHT22;16599;47.078;15.536;2022-10-30T12:57:27;21.30;92.20
29687;DHT22;16599;47.078;15.536;2022-10-30T13:08:45;21.40;95.40
29687;DHT22;16599;47.078;15.536;2022-10-30T13:11:20;21.40;94.70
29687;DHT22;16599;47.078;15.536;2022-10-30T13:13:52;21.60;93.00
29687;DHT22;16599;47.078;15.536;2022-10-30T13:16:25;21.60;93.40
29687;DHT22;16599;47.078;15.536;2022-10-30T13:18:56;21.60;93.40
29687;DHT22;16599;47.078;15.536;2022-10-30T13:24:11;21.50;94.20
29687;DHT22;16599;47.078;15.536;2022-10-30T13:26:52;21.50;93.30
29687;DHT22;16599;47.078;15.536;2022-10-30T13:29:49;21.40;94.80
29687;DHT22;16599;47.078;15.536;2022-10-30T13:34:59;21.30;95.10
29687;DHT22;16599;47.078;15.536;2022-10-30T13:37:42;21.30;95.60
29687;DHT22;16599;47.078;15.536;2022-10-30T13:43:21;21.00;95.50
29687;DHT22;16599;47.078;15.536;2022-10-30T13:48:46;20.80;97.10
29687;DHT22;16599;47.078;15.536;2022-10-30T13:53:45;20.40;98.50
29687;DHT22;16599;47.078;15.536;2022-10-30T13:56:18;20.20;98.80
29687;DHT22;16599;47.078;15.536;2022-10-30T14:01:50;20.00;99.90
29687;DHT22;16599;47.078;15.536;2022-10-30T14:04:41;19.90;99.90
29687;DHT22;16599;47.078;15.536;2022-10-30T14:10:07;19.80;99.90
29687;DHT22;16599;47.078;15.536;2022-10-30T14:12:49;19.70;99.90
29687;DHT22;16599;47.078;15.536;2022-10-30T14:15:32;19.60;99.90
29687;DHT22;16599;47.078;15.536;2022-10-30T14:20:49;19.50;99.90
29687;DHT22;16599;47.078;15.536;2022-10-30T14:23:20;19.50;99.90
29687;DHT22;16599;47.078;15.536;2022-10-30T14:28:37;19.40;99.90
29687;DHT22;16599;47.078;15.536;2022-10-30T14:31:14;19.20;99.90
29687;DHT22;16599;47.078;15.536;2022-10-30T14:33:50;19.20;99.90
29687;DHT22;16599;47.078;15.536;2022-10-30T14:38:57;19.00;99.90
29687;DHT22;16599;47.078;15.536;2022-10-30T14:41:33;19.00;99.90
29687;DHT22;16599;47.078;15.536;2022-10-30T14:44:05;18.90;99.90
29687;DHT22;16599;47.078;15.536;2022-10-30T14:54:48;18.60;99.90
29687;DHT22;16599;47.078;15.536;2022-10-30T14:57:21;18.50;99.90
29687;DHT22;16599;47.078;15.536;2022-10-30T14:59:48;18.30;99.90
29687;DHT22;16599;47.078;15.536;2022-10-30T15:08:40;17.90;99.90
29687;DHT22;16599;47.078;15.536;2022-10-30T15:11:24;17.60;99.90
29687;DHT22;16599;47.078;15.536;2022-10-30T15:13:58;17.40;99.90
29687;DHT22;16599;47.078;15.536;2022-10-30T15:16:27;17.30;99.90
29687;DHT22;16599;47.078;15.536;2022-10-30T15:19:02;17.20;99.90
29687;DHT22;16599;47.078;15.536;2022-10-30T15:21:31;17.00;99.90
29687;DHT22;16599;47.078;15.536;2022-10-30T15:28:02;16.40;99.90
29687;DHT22;16599;47.078;15.536;2022-10-30T15:30:29;16.20;99.90
29687;DHT22;16599;47.078;15.536;2022-10-30T15:32:56;16.30;99.90
29687;DHT22;16599;47.078;15.536;2022-10-30T15:35:25;16.20;99.90
29687;DHT22;16599;47.078;15.536;2022-10-30T15:37:57;16.00;99.90
29687;DHT22;16599;47.078;15.536;2022-10-30T15:40:24;15.60;99.90
29687;DHT22;16599;47.078;15.536;2022-10-30T15:42:52;15.10;99.90
29687;DHT22;16599;47.078;15.536;2022-10-30T15:45:39;15.00;99.90
29687;DHT22;16599;47.078;15.536;2022-10-30T15:50:45;15.10;99.90
29687;DHT22;16599;47.078;15.536;2022-10-30T15:53:20;15.10;99.90
29687;DHT22;16599;47.078;15.536;2022-10-30T15:55:50;14.80;99.90
29687;DHT22;16599;47.078;15.536;2022-10-30T15:58:20;14.60;99.90
29687;DHT22;16599;47.078;15.536;2022-10-30T16:00:59;14.50;99.90
29687;DHT22;16599;47.078;15.536;2022-10-30T16:03:27;14.30;99.90
29687;DHT22;16599;47.078;15.536;2022-10-30T16:06:15;14.10;99.90
29687;DHT22;16599;47.078;15.536;2022-10-30T16:11:24;14.10;99.90
29687;DHT22;16599;47.078;15.536;2022-10-30T16:13:52;14.10;99.90
29687;DHT22;16599;47.078;15.536;2022-10-30T16:16:29;14.00;99.90
29687;DHT22;16599;47.078;15.536;2022-10-30T16:19:00;13.70;99.90
29687;DHT22;16599;47.078;15.536;2022-10-30T16:21:28;13.60;99.90
29687;DHT22;16599;47.078;15.536;2022-10-30T16:24:01;13.60;99.90
29687;DHT22;16599;47.078;15.536;2022-10-30T16:26:35;13.70;99.90
29687;DHT22;16599;47.078;15.536;2022-10-30T16:31:44;13.90;99.90
29687;DHT22;16599;47.078;15.536;2022-10-30T16:36:49;13.40;99.90
29687;DHT22;16599;47.078;15.536;2022-10-30T16:39:19;13.30;99.90
29687;DHT22;16599;47.078;15.536;2022-10-30T16:41:47;13.20;99.90
29687;DHT22;16599;47.078;15.536;2022-10-30T16:44:28;13.00;99.90
29687;DHT22;16599;47.078;15.536;2022-10-30T16:49:49;13.00;99.90
29687;DHT22;16599;47.078;15.536;2022-10-30T16:52:20;13.00;99.90
29687;DHT22;16599;47.078;15.536;2022-10-30T16:54:59;13.10;99.90
29687;DHT22;16599;47.078;15.536;2022-10-30T16:57:30;12.80;99.90
29687;DHT22;16599;47.078;15.536;2022-10-30T16:59:59;12.80;99.90
29687;DHT22;16599;47.078;15.536;2022-10-30T17:02:33;12.70;99.90
29687;DHT22;16599;47.078;15.536;2022-10-30T17:07:29;12.70;99.90
29687;DHT22;16599;47.078;15.536;2022-10-30T17:09:56;12.90;99.90
29687;DHT22;16599;47.078;15.536;2022-10-30T17:12:28;12.90;99.90
29687;DHT22;16599;47.078;15.536;2022-10-30T17:17:39;12.50;99.90
29687;DHT22;16599;47.078;15.536;2022-10-30T17:22:45;12.10;99.90
29687;DHT22;16599;47.078;15.536;2022-10-30T17:28:33;12.10;99.90
29687;DHT22;16599;47.078;15.536;2022-10-30T17:31:24;12.20;99.90
29687;DHT22;16599;47.078;15.536;2022-10-30T17:34:17;12.20;99.90
29687;DHT22;16599;47.078;15.536;2022-10-30T17:36:47;12.10;99.90
29687;DHT22;16599;47.078;15.536;2022-10-30T17:39:15;12.10;99.90
29687;DHT22;16599;47.078;15.536;2022-10-30T17:41:42;12.10;99.90
29687;DHT22;16599;47.078;15.536;2022-10-30T17:44:20;12.20;99.90
29687;DHT22;16599;47.078;15.536;2022-10-30T17:46:49;11.90;99.90
29687;DHT22;16599;47.078;15.536;2022-10-30T17:49:28;11.80;99.90
29687;DHT22;16599;47.078;15.536;2022-10-30T17:51:55;11.80;99.90
29687;DHT22;16599;47.078;15.536;2022-10-30T17:54:25;11.70;99.90
29687;DHT22;16599;47.078;15.536;2022-10-30T17:56:52;11.70;99.90
29687;DHT22;16599;47.078;15.536;2022-10-30T17:59:19;11.60;99.90
29687;DHT22;16599;47.078;15.536;2022-10-30T18:01:48;11.70;99.90
29687;DHT22;16599;47.078;15.536;2022-10-30T18:04:17;11.70;99.90
29687;DHT22;16599;47.078;15.536;2022-10-30T18:06:47;11.60;99.90
29687;DHT22;16599;47.078;15.536;2022-10-30T18:09:15;11.60;99.90
29687;DHT22;16599;47.078;15.536;2022-10-30T18:14:11;11.40;99.90
29687;DHT22;16599;47.078;15.536;2022-10-30T18:16:38;11.40;99.90
29687;DHT22;16599;47.078;15.536;2022-10-30T18:19:09;11.40;99.90
29687;DHT22;16599;47.078;15.536;2022-10-30T18:21:36;11.30;99.90
29687;DHT22;16599;47.078;15.536;2022-10-30T18:24:14;11.40;99.90
29687;DHT22;16599;47.078;15.536;2022-10-30T18:26:41;11.30;99.90
29687;DHT22;16599;47.078;15.536;2022-10-30T18:29:09;11.20;99.90
29687;DHT22;16599;47.078;15.536;2022-10-30T18:31:37;11.30;99.90
29687;DHT22;16599;47.078;15.536;2022-10-30T18:34:09;11.20;99.90